Time;durP1;ratioP1;P1;durP2;ratioP2;P2;SDS_P1;SDS_P2;PMS_P1;PMS_P2;Temp;Humidity;BMP_temperature;BMP_pressure;BME280_temperature;BME280_humidity;BME280_pressure;Samples;Min_cycle;Max_cycle;Signal;HPM_P1;HPM_P2
2022/03/15 00:02:26;;;;;;;23.90;15.97;;;;;;;8.13;76.57;102678.53;5263013;28;20067;-74
2022/03/15 00:04:58;;;;;;;24.87;17.17;;;;;;;8.38;75.44;102684.09;5247398;28;20037;-74
2022/03/15 00:07:29;;;;;;;22.30;16.77;;;;;;;8.17;76.18;102680.19;5250446;28;20430;-74
2022/03/15 00:10:00;;;;;;;27.03;16.63;;;;;;;8.11;76.18;102675.97;5249734;28;20504;-75
2022/03/15 00:12:32;;;;;;;23.23;16.93;;;;;;;8.09;75.70;102675.13;5249295;28;20112;-74
2022/03/15 00:15:04;;;;;;;20.53;15.93;;;;;;;8.10;75.99;102679.44;5251933;28;20025;-74
2022/03/15 00:17:36;;;;;;;27.63;16.20;;;;;;;7.96;76.49;102672.75;5249083;28;20025;-74
2022/03/15 00:20:10;;;;;;;24.60;16.73;;;;;;;7.93;77.34;102685.84;5251062;28;20108;-74
2022/03/15 00:22:42;;;;;;;24.03;16.70;;;;;;;8.03;77.57;102673.47;5252389;28;20017;-74
2022/03/15 00:25:16;;;;;;;24.20;16.73;;;;;;;7.87;77.77;102673.78;5253476;28;20086;-75
2022/03/15 00:27:50;;;;;;;;;;;;;;;8.34;75.08;102672.03;5253307;28;20033;-75
2022/03/15 00:30:23;;;;;;;24.80;16.30;;;;;;;7.97;78.00;102671.00;5253311;28;19913;-75
2022/03/15 00:32:54;;;;;;;25.23;15.80;;;;;;;7.94;78.14;102669.31;5268315;28;20483;-75
2022/03/15 00:35:25;;;;;;;25.10;15.47;;;;;;;7.94;78.21;102663.25;5273628;28;20027;-74
2022/03/15 00:37:57;;;;;;;27.93;16.50;;;;;;;7.92;77.04;102683.28;5274178;28;20067;-75
2022/03/15 00:40:28;;;;;;;29.73;16.40;;;;;;;7.74;78.18;102667.94;5274269;28;20426;-75
2022/03/15 00:43:00;;;;;;;25.00;16.93;;;;;;;7.85;77.90;102685.16;5273904;28;20031;-75
2022/03/15 00:45:31;;;;;;;26.60;16.43;;;;;;;7.81;78.23;102678.25;5274170;28;20055;-75
2022/03/15 00:48:03;;;;;;;23.57;16.80;;;;;;;7.89;77.66;102671.13;5276796;28;20024;-74
2022/03/15 00:50:37;;;;;;;28.07;16.97;;;;;;;7.88;78.00;102674.66;5274383;28;20036;-74
2022/03/15 00:53:09;;;;;;;23.30;16.58;;;;;;;7.83;78.54;102671.25;5273958;28;20024;-74
2022/03/15 00:55:41;;;;;;;20.40;14.67;;;;;;;7.84;77.58;102672.97;5274705;28;20978;-74
2022/03/15 00:58:12;;;;;;;25.00;15.47;;;;;;;7.81;77.51;102663.47;5272749;28;20082;-74
2022/03/15 01:00:48;;;;;;;24.97;16.43;;;;;;;7.78;77.90;102652.22;5273981;28;20049;-74
2022/03/15 01:03:19;;;;;;;17.67;13.77;;;;;;;7.90;77.41;102661.56;5272866;28;20505;-74
2022/03/15 01:05:51;;;;;;;19.23;14.67;;;;;;;8.05;76.62;102655.19;5273989;28;20021;-74
2022/03/15 01:08:22;;;;;;;21.60;14.73;;;;;;;7.99;76.24;102654.41;5273786;28;20040;-75
2022/03/15 01:10:53;;;;;;;20.60;14.47;;;;;;;7.86;76.45;102652.94;5273571;28;20035;-75
2022/03/15 01:13:25;;;;;;;24.87;14.70;;;;;;;7.94;76.86;102669.31;5273740;28;20012;-75
2022/03/15 01:15:56;;;;;;;25.83;15.00;;;;;;;8.07;75.54;102658.63;5272255;28;20580;-75
2022/03/15 01:18:27;;;;;;;25.17;15.33;;;;;;;7.85;76.82;102672.09;5271370;28;20008;-74
2022/03/15 01:20:58;;;;;;;22.40;14.77;;;;;;;7.98;76.34;102665.75;5273904;28;20021;-74
2022/03/15 01:23:31;;;;;;;22.90;14.57;;;;;;;7.74;76.14;102662.72;5273395;28;20008;-74
2022/03/15 01:26:03;;;;;;;22.57;14.70;;;;;;;7.75;77.09;102654.00;5274011;28;20025;-74
2022/03/15 01:28:34;;;;;;;23.93;14.63;;;;;;;7.79;76.99;102646.13;5272287;28;20039;-74
2022/03/15 01:31:05;;;;;;;23.77;13.43;;;;;;;7.72;76.83;102648.84;5273246;28;20024;-74
2022/03/15 01:33:37;;;;;;;22.33;13.07;;;;;;;7.78;76.29;102632.25;5272221;28;20035;-74
2022/03/15 01:36:09;;;;;;;19.77;13.20;;;;;;;7.76;76.68;102636.63;5273719;28;20066;-74
2022/03/15 01:38:40;;;;;;;21.03;13.27;;;;;;;7.84;76.01;102637.31;5272976;28;20998;-74
2022/03/15 01:41:12;;;;;;;23.33;12.77;;;;;;;7.68;76.66;102636.75;5271582;28;20102;-74
2022/03/15 01:43:43;;;;;;;24.83;13.50;;;;;;;7.76;76.38;102620.97;5272779;28;20526;-75
2022/03/15 01:46:16;;;;;;;20.53;12.83;;;;;;;7.79;75.94;102622.63;5271808;28;20137;-75
2022/03/15 01:48:47;;;;;;;21.20;12.40;;;;;;;7.64;75.65;102603.81;5272557;28;20660;-75
2022/03/15 01:51:19;;;;;;;22.20;12.67;;;;;;;7.70;76.86;102628.88;5271179;28;20352;-74
2022/03/15 01:53:51;;;;;;;20.40;12.60;;;;;;;7.53;76.50;102621.38;5273334;28;20043;-74
2022/03/15 01:56:24;;;;;;;20.47;13.43;;;;;;;7.57;76.87;102626.53;5272470;28;20036;-75
2022/03/15 01:58:55;;;;;;;20.17;12.53;;;;;;;7.65;75.66;102628.97;5272914;28;20023;-74
2022/03/15 02:01:26;;;;;;;19.47;12.67;;;;;;;7.52;76.33;102632.72;5272435;28;20107;-75
2022/03/15 02:03:57;;;;;;;19.90;12.67;;;;;;;7.51;76.85;102624.03;5270120;28;20070;-75
2022/03/15 02:06:29;;;;;;;16.90;11.73;;;;;;;7.72;75.46;102614.06;5272534;28;20028;-74
2022/03/15 02:09:10;;;;;;;25.90;13.50;;;;;;;7.58;76.03;102611.72;5272215;28;20040;-74
2022/03/15 02:11:46;;;;;;;19.73;12.40;;;;;;;7.73;75.55;102618.44;5272482;28;20388;-74
2022/03/15 02:14:17;;;;;;;24.50;11.83;;;;;;;7.75;75.42;102620.09;5280859;22;20248;-74
2022/03/15 02:16:49;;;;;;;22.97;13.80;;;;;;;7.61;75.79;102622.13;5270781;28;20119;-74
2022/03/15 02:19:21;;;;;;;19.13;12.73;;;;;;;7.44;76.19;102617.19;5271953;28;20031;-75
2022/03/15 02:21:52;;;;;;;20.43;10.93;;;;;;;7.51;76.24;102592.72;5271152;28;20082;-75
2022/03/15 02:24:24;;;;;;;19.83;10.87;;;;;;;7.52;76.22;102588.38;5271393;28;20656;-75
2022/03/15 02:26:56;;;;;;;22.27;12.43;;;;;;;7.52;75.90;102604.03;5272586;28;20028;-75
2022/03/15 02:29:27;;;;;;;23.57;11.43;;;;;;;7.42;76.59;102593.75;5271872;28;20026;-74
2022/03/15 02:31:59;;;;;;;20.07;11.87;;;;;;;7.34;76.82;102588.69;5272082;28;20021;-75
2022/03/15 02:34:30;;;;;;;24.07;13.63;;;;;;;7.38;77.15;102590.34;5270318;28;20036;-74
2022/03/15 02:37:01;;;;;;;15.93;11.77;;;;;;;7.58;76.40;102589.13;5272115;28;20023;-74
2022/03/15 02:39:32;;;;;;;16.57;10.90;;;;;;;7.42;75.89;102569.47;5254102;28;20065;-74
2022/03/15 02:42:04;;;;;;;19.40;11.87;;;;;;;7.46;76.45;102574.56;5271383;28;20537;-74
2022/03/15 02:44:35;;;;;;;19.37;12.27;;;;;;;7.57;75.69;102592.63;5270460;28;20041;-75
2022/03/15 02:47:07;;;;;;;17.27;11.30;;;;;;;7.45;76.23;102591.09;5270039;28;20029;-74
2022/03/15 02:49:38;;;;;;;22.67;12.50;;;;;;;7.39;76.42;102578.19;5270681;28;20062;-74
2022/03/15 02:52:10;;;;;;;19.87;11.40;;;;;;;7.52;76.24;102577.97;5269781;28;20036;-74
2022/03/15 02:54:41;;;;;;;20.10;11.40;;;;;;;7.53;76.37;102574.44;5272554;28;20446;-74
2022/03/15 02:57:12;;;;;;;15.97;10.57;;;;;;;7.22;77.03;102561.13;5271358;28;20020;-74
2022/03/15 02:59:44;;;;;;;27.13;11.60;;;;;;;7.35;76.51;102568.69;5272528;28;20134;-74
2022/03/15 03:02:15;;;;;;;19.37;11.70;;;;;;;7.29;76.57;102571.41;5270054;28;20032;-74
2022/03/15 03:04:46;;;;;;;19.97;11.43;;;;;;;7.48;75.88;102557.16;5286758;28;20066;-74
2022/03/15 03:07:19;;;;;;;17.60;12.23;;;;;;;7.46;75.66;102551.13;5270208;28;20033;-74
2022/03/15 03:09:50;;;;;;;21.30;12.77;;;;;;;7.41;76.56;102529.50;5272273;28;20410;-74
2022/03/15 03:12:22;;;;;;;18.13;10.83;;;;;;;7.30;76.71;102532.28;5271335;28;20104;-75
2022/03/15 03:14:53;;;;;;;21.37;12.33;;;;;;;7.16;78.18;102540.34;5270426;28;20048;-74
2022/03/15 03:17:25;;;;;;;21.27;11.77;;;;;;;7.24;77.33;102543.69;5270067;28;20046;-74
2022/03/15 03:19:56;;;;;;;18.13;11.30;;;;;;;7.17;77.45;102536.88;5269093;28;20024;-74
2022/03/15 03:22:27;;;;;;;18.57;11.77;;;;;;;7.34;76.29;102538.31;5271722;28;20025;-74
2022/03/15 03:24:58;;;;;;;15.80;10.83;;;;;;;7.36;76.11;102532.19;5270808;28;20085;-74
2022/03/15 03:27:30;;;;;;;24.30;11.93;;;;;;;7.19;77.07;102534.25;5253426;28;20041;-74
2022/03/15 03:30:02;;;;;;;20.87;10.70;;;;;;;7.26;76.96;102534.09;5270929;28;20089;-74
2022/03/15 03:32:34;;;;;;;17.80;10.30;;;;;;;7.37;76.10;102533.91;5270977;28;20545;-74
2022/03/15 03:35:06;;;;;;;15.40;9.87;;;;;;;7.23;76.44;102533.28;5271146;28;20071;-74
2022/03/15 03:37:37;;;;;;;22.73;11.90;;;;;;;7.26;76.11;102528.03;5271811;28;20031;-74
2022/03/15 03:40:09;;;;;;;18.27;10.57;;;;;;;7.30;75.97;102524.47;5271488;28;20119;-74
2022/03/15 03:42:40;;;;;;;19.83;11.03;;;;;;;7.29;76.07;102529.72;5269838;28;20029;-74
2022/03/15 03:45:11;;;;;;;15.83;10.43;;;;;;;7.44;75.53;102539.84;5271259;28;20036;-74
2022/03/15 03:47:43;;;;;;;19.27;10.97;;;;;;;7.41;75.42;102537.31;5269025;28;20025;-74
2022/03/15 03:50:14;;;;;;;19.80;11.97;;;;;;;7.35;75.47;102529.59;5271538;28;20071;-74
2022/03/15 03:52:45;;;;;;;18.30;10.67;;;;;;;7.30;75.19;102523.59;5271636;28;20044;-75
2022/03/15 03:55:17;;;;;;;19.50;10.43;;;;;;;7.41;75.56;102519.06;5275333;28;20115;-74
2022/03/15 03:57:48;;;;;;;19.03;10.77;;;;;;;7.25;76.48;102529.78;5275269;28;20021;-74
2022/03/15 04:00:19;;;;;;;21.07;10.97;;;;;;;7.32;75.93;102517.50;5275076;28;20364;-74
2022/03/15 04:02:53;;;;;;;21.40;10.73;;;;;;;7.10;76.84;102506.63;5273124;28;20054;-75
2022/03/15 04:05:25;;;;;;;20.73;12.57;;;;;;;7.19;77.06;102523.81;5274451;28;20032;-75
2022/03/15 04:07:59;;;;;;;21.67;11.60;;;;;;;7.14;77.19;102524.75;5275304;28;20024;-74
2022/03/15 04:10:31;;;;;;;16.42;11.80;;;;;;;7.23;77.20;102526.34;5275088;28;20425;-74
2022/03/15 04:13:02;;;;;;;20.33;11.97;;;;;;;7.07;77.47;102522.31;5275151;28;20032;-74
2022/03/15 04:15:34;;;;;;;18.13;11.67;;;;;;;7.00;77.84;102535.41;5274933;28;20104;-75
2022/03/15 04:18:06;;;;;;;21.83;11.80;;;;;;;7.13;77.65;102525.66;5272878;28;20029;-74
2022/03/15 04:20:39;;;;;;;20.63;11.87;;;;;;;7.01;78.17;102531.94;5274637;28;20039;-74
2022/03/15 04:23:11;;;;;;;15.10;10.83;;;;;;;7.14;77.18;102539.53;5274532;28;20579;-74
2022/03/15 04:25:42;;;;;;;22.83;11.80;;;;;;;6.94;78.14;102538.16;5274583;28;20032;-74
2022/03/15 04:28:14;;;;;;;19.73;11.53;;;;;;;7.00;78.49;102540.63;5274692;28;20463;-74
2022/03/15 04:30:45;;;;;;;24.60;12.70;;;;;;;7.01;78.62;102542.38;5275682;28;20094;-74
2022/03/15 04:33:16;;;;;;;19.53;11.40;;;;;;;6.85;78.79;102535.69;5273542;28;20109;-74
2022/03/15 04:35:48;;;;;;;19.90;11.07;;;;;;;6.86;79.07;102532.22;5274694;28;20032;-74
2022/03/15 04:38:19;;;;;;;16.27;11.10;;;;;;;6.94;78.52;102540.75;5273870;28;20025;-74
2022/03/15 04:40:50;;;;;;;14.53;10.37;;;;;;;7.16;77.62;102532.53;5275069;28;20032;-74
2022/03/15 04:43:21;;;;;;;26.47;12.10;;;;;;;7.07;77.74;102532.72;5272922;28;20039;-74
2022/03/15 04:45:53;;;;;;;21.90;11.07;;;;;;;6.96;77.98;102518.16;5273223;28;20036;-74
2022/03/15 04:48:24;;;;;;;18.77;11.90;;;;;;;6.81;78.53;102526.22;5272823;28;20114;-74
2022/03/15 04:50:55;;;;;;;17.30;11.10;;;;;;;6.88;78.33;102520.00;5273608;28;20021;-74
2022/03/15 04:53:27;;;;;;;20.07;12.00;;;;;;;6.95;78.24;102519.00;5273053;28;20107;-74
2022/03/15 04:55:58;;;;;;;21.40;11.13;;;;;;;6.88;77.98;102515.66;5273760;28;20017;-74
2022/03/15 04:58:29;;;;;;;20.37;11.37;;;;;;;6.83;78.41;102521.81;5274517;28;20103;-74
2022/03/15 05:01:01;;;;;;;19.23;11.37;;;;;;;6.84;79.11;102513.16;5273802;28;20402;-74
2022/03/15 05:03:33;;;;;;;18.87;11.30;;;;;;;6.88;78.34;102509.59;5273404;28;20494;-74
2022/03/15 05:06:04;;;;;;;19.23;10.93;;;;;;;6.63;79.28;102489.19;5272619;28;20547;-74
2022/03/15 05:08:36;;;;;;;19.70;10.43;;;;;;;6.88;78.64;102509.59;5274197;28;20017;-73
2022/03/15 05:11:07;;;;;;;21.57;10.60;;;;;;;6.79;78.41;102500.19;5273713;28;20025;-74
2022/03/15 05:13:43;;;;;;;19.30;11.83;;;;;;;6.95;77.84;102498.19;5274300;28;20031;-74
2022/03/15 05:16:18;;;;;;;19.90;10.73;;;;;;;7.06;77.61;102499.72;5273666;28;20551;-74
2022/03/15 05:18:54;;;;;;;16.88;10.13;;;;;;;6.92;77.93;102485.22;5271960;28;20016;-74
2022/03/15 05:21:25;;;;;;;20.87;11.90;;;;;;;7.00;77.56;102495.47;5272947;28;20024;-73
2022/03/15 05:23:56;;;;;;;18.30;10.43;;;;;;;6.97;77.14;102486.00;5273893;28;20027;-74
2022/03/15 05:26:28;;;;;;;15.67;10.10;;;;;;;6.93;77.37;102502.53;5272361;28;20066;-74
2022/03/15 05:28:59;;;;;;;16.03;9.83;;;;;;;6.94;78.00;102490.38;5273183;28;20060;-74
2022/03/15 05:31:31;;;;;;;19.83;10.53;;;;;;;7.03;77.43;102498.06;5273610;28;20542;-74
2022/03/15 05:34:02;;;;;;;19.03;10.70;;;;;;;7.06;77.34;102499.72;5272129;28;20042;-74
2022/03/15 05:36:33;;;;;;;16.73;10.33;;;;;;;6.85;78.45;102481.84;5273034;28;20028;-74
2022/03/15 05:39:05;;;;;;;18.67;11.50;;;;;;;6.74;79.12;102482.03;5288661;28;20501;-73
2022/03/15 05:41:36;;;;;;;19.80;10.93;;;;;;;6.74;79.41;102483.78;5272347;28;20459;-74
2022/03/15 05:44:07;;;;;;;19.60;11.10;;;;;;;6.85;78.78;102481.00;5271133;28;20028;-74
2022/03/15 05:46:39;;;;;;;17.50;10.50;;;;;;;6.81;78.67;102466.31;5283177;28;20086;-74
2022/03/15 05:49:10;;;;;;;18.37;10.30;;;;;;;6.85;78.19;102458.41;5292328;28;20529;-74
2022/03/15 05:51:41;;;;;;;19.50;10.90;;;;;;;6.91;77.95;102467.88;5294098;28;20020;-74
2022/03/15 05:54:12;;;;;;;18.93;11.50;;;;;;;6.90;77.82;102468.75;5290222;28;20059;-74
2022/03/15 05:56:45;;;;;;;16.03;9.97;;;;;;;6.84;78.09;102467.09;5276708;28;20093;-75
2022/03/15 05:59:16;;;;;;;16.47;9.90;;;;;;;6.84;78.04;102474.91;5272938;28;20025;-74
2022/03/15 06:01:47;;;;;;;19.60;10.47;;;;;;;6.74;78.71;102471.63;5271725;28;20047;-74
2022/03/15 06:04:19;;;;;;;17.47;9.70;;;;;;;6.89;77.86;102467.03;5272044;28;20115;-78
2022/03/15 06:06:51;;;;;;;15.53;10.97;;;;;;;6.76;78.46;102466.38;5272720;28;20024;-76
2022/03/15 06:09:25;;;;;;;21.33;11.27;;;;;;;6.81;77.73;102461.94;5272818;28;20082;-73
2022/03/15 06:11:57;;;;;;;22.70;11.80;;;;;;;6.65;78.81;102466.56;5274130;28;20233;-75
2022/03/15 06:14:28;;;;;;;17.13;9.43;;;;;;;6.64;79.09;102477.88;5279539;28;20048;-75
2022/03/15 06:16:59;;;;;;;19.87;10.60;;;;;;;6.63;78.38;102466.59;5271202;28;20031;-76
2022/03/15 06:19:31;;;;;;;18.27;10.60;;;;;;;6.68;78.11;102476.94;5271083;28;20031;-76
2022/03/15 06:22:02;;;;;;;20.43;11.40;;;;;;;6.74;78.51;102470.75;5254947;28;20032;-77
2022/03/15 06:24:34;;;;;;;20.93;10.30;;;;;;;6.50;79.53;102446.88;5270935;28;20454;-79
2022/03/15 06:27:05;;;;;;;17.73;10.33;;;;;;;6.54;78.87;102453.75;5258621;28;20094;-75
2022/03/15 06:29:37;;;;;;;19.90;10.50;;;;;;;6.64;79.30;102475.28;5267348;28;20046;-72
2022/03/15 06:32:08;;;;;;;17.90;11.50;;;;;;;6.64;79.12;102470.06;5270133;28;20368;-72
2022/03/15 06:34:40;;;;;;;24.67;11.90;;;;;;;6.57;78.74;102473.66;5271073;28;20491;-72
2022/03/15 06:37:12;;;;;;;20.47;10.80;;;;;;;6.84;77.59;102463.66;5271204;28;20444;-74
2022/03/15 06:39:44;;;;;;;20.20;10.70;;;;;;;6.59;77.96;102461.47;5271229;28;20094;-73
2022/03/15 06:42:16;;;;;;;21.47;11.73;;;;;;;6.50;78.93;102465.94;5271839;28;20021;-73
2022/03/15 06:44:47;;;;;;;28.93;12.83;;;;;;;6.42;78.94;102462.63;5270832;28;20449;-72
2022/03/15 06:47:19;;;;;;;21.00;10.73;;;;;;;6.42;78.86;102441.81;5270480;28;20035;-72
2022/03/15 06:49:50;;;;;;;17.03;10.70;;;;;;;6.49;78.35;102456.41;5270828;28;20037;-72
2022/03/15 06:52:21;;;;;;;17.23;11.67;;;;;;;6.27;79.22;102445.50;5266399;28;20074;-72
2022/03/15 06:54:53;;;;;;;17.87;10.60;;;;;;;6.37;79.16;102451.44;5270757;28;20059;-72
2022/03/15 06:57:24;;;;;;;18.67;10.57;;;;;;;6.36;78.76;102444.47;5270311;28;20016;-72
2022/03/15 06:59:56;;;;;;;23.87;10.40;;;;;;;6.31;79.25;102448.91;5272031;28;20207;-72
2022/03/15 07:02:27;;;;;;;27.07;12.00;;;;;;;6.28;79.75;102447.22;5270340;28;20016;-72
2022/03/15 07:04:59;;;;;;;18.10;10.77;;;;;;;6.27;79.44;102441.16;5271240;28;20063;-72
2022/03/15 07:07:30;;;;;;;21.10;10.80;;;;;;;6.31;79.11;102446.31;5270727;28;20131;-71
2022/03/15 07:10:05;;;;;;;16.30;10.00;;;;;;;6.27;78.55;102437.69;5268422;28;20060;-71
2022/03/15 07:12:37;;;;;;;20.40;8.87;;;;;;;6.35;78.42;102440.19;5266827;28;20071;-72
2022/03/15 07:15:10;;;;;;;23.80;9.70;;;;;;;6.34;78.31;102444.50;5270645;28;20072;-72
2022/03/15 07:17:52;;;;;;;18.53;8.47;;;;;;;6.47;78.17;102444.31;5269458;28;20608;-72
2022/03/15 07:20:25;;;;;;;17.43;9.97;;;;;;;6.46;78.02;102448.66;5270565;28;20021;-72
2022/03/15 07:22:56;;;;;;;14.13;9.40;;;;;;;6.42;77.69;102444.41;5271381;28;20028;-72
2022/03/15 07:25:28;;;;;;;17.50;8.70;;;;;;;6.52;77.40;102435.56;5270409;28;20070;-73
2022/03/15 07:27:59;;;;;;;19.43;9.27;;;;;;;6.65;76.76;102430.13;5272615;28;20020;-72
2022/03/15 07:30:30;;;;;;;16.27;9.87;;;;;;;6.62;77.21;102437.97;5264387;28;20028;-72
2022/03/15 07:33:01;;;;;;;19.93;10.17;;;;;;;6.59;78.19;102431.09;5272550;28;20025;-73
2022/03/15 07:35:33;;;;;;;19.30;8.40;;;;;;;6.53;77.36;102425.97;5275934;28;20052;-72
2022/03/15 07:38:04;;;;;;;17.17;8.83;;;;;;;6.58;76.86;102434.56;5284095;28;20049;-72
2022/03/15 07:40:35;;;;;;;17.13;8.97;;;;;;;6.54;77.51;102435.53;5278165;28;20086;-72
2022/03/15 07:43:07;;;;;;;15.33;9.00;;;;;;;6.62;77.41;102427.56;5272723;28;20032;-73
2022/03/15 07:45:38;;;;;;;21.73;9.03;;;;;;;6.64;77.32;102431.00;5279783;28;20020;-72
2022/03/15 07:48:10;;;;;;;18.87;8.57;;;;;;;6.62;77.07;102427.56;5270198;28;20032;-72
2022/03/15 07:50:41;;;;;;;19.20;8.70;;;;;;;6.46;77.42;102414.81;5275975;28;20027;-72
2022/03/15 07:53:12;;;;;;;17.43;9.57;;;;;;;6.68;77.09;102426.59;5285107;28;20024;-73
2022/03/15 07:55:43;;;;;;;23.67;9.50;;;;;;;6.63;76.91;102429.31;5280556;28;20029;-73
2022/03/15 07:58:15;;;;;;;26.50;10.40;;;;;;;6.63;76.79;102421.50;5274115;28;20467;-73
2022/03/15 08:00:47;;;;;;;17.17;7.93;;;;;;;6.65;76.68;102420.56;5277476;28;20261;-72
2022/03/15 08:03:18;;;;;;;15.40;8.47;;;;;;;6.67;76.81;102417.94;5275330;28;20111;-72
2022/03/15 08:05:51;;;;;;;22.03;8.10;;;;;;;6.74;76.73;102410.88;5276422;28;20085;-72
2022/03/15 08:08:22;;;;;;;13.13;7.50;;;;;;;6.82;75.95;102422.03;5273106;28;20032;-73
2022/03/15 08:10:53;;;;;;;23.33;8.20;;;;;;;6.83;76.22;102415.03;5277326;28;20093;-72
2022/03/15 08:13:24;;;;;;;18.43;8.83;;;;;;;6.85;76.49;102411.53;5275835;28;20040;-72
2022/03/15 08:15:56;;;;;;;17.93;7.87;;;;;;;7.04;75.70;102402.50;5277496;28;20064;-72
2022/03/15 08:18:27;;;;;;;15.53;8.57;;;;;;;6.94;75.31;102409.66;5271926;28;20033;-73
2022/03/15 08:20:59;;;;;;;21.20;8.33;;;;;;;6.95;75.74;102396.59;5276166;28;20027;-73
2022/03/15 08:23:30;;;;;;;14.83;7.53;;;;;;;6.96;75.20;102385.28;5277078;28;20421;-72
2022/03/15 08:26:02;;;;;;;16.03;7.10;;;;;;;7.07;75.65;102399.84;5276384;28;20033;-73
2022/03/15 08:28:33;;;;;;;13.23;7.60;;;;;;;7.03;75.53;102399.06;5273357;28;20032;-73
2022/03/15 08:31:04;;;;;;;15.73;7.23;;;;;;;7.06;75.49;102392.91;5276738;28;20086;-72
2022/03/15 08:33:35;;;;;;;12.93;6.30;;;;;;;7.08;74.73;102391.13;5276502;28;20029;-72
2022/03/15 08:36:07;;;;;;;17.90;7.20;;;;;;;7.05;74.57;102386.81;5276895;28;20081;-73
2022/03/15 08:38:39;;;;;;;14.13;6.73;;;;;;;7.14;75.43;102396.22;5274132;28;20032;-70
2022/03/15 08:41:11;;;;;;;19.87;7.60;;;;;;;7.13;74.37;102389.28;5271349;28;20055;-70
2022/03/15 08:43:42;;;;;;;14.67;6.40;;;;;;;7.13;74.27;102384.94;5273509;28;20081;-70
2022/03/15 08:46:13;;;;;;;13.53;6.90;;;;;;;7.29;74.54;102387.25;5273271;28;20036;-72
2022/03/15 08:48:45;;;;;;;14.07;6.97;;;;;;;7.39;74.12;102390.50;5269561;28;20020;-70
2022/03/15 08:51:16;;;;;;;15.73;6.07;;;;;;;7.47;73.25;102387.75;5273148;28;20786;-70
2022/03/15 08:53:47;;;;;;;17.53;6.70;;;;;;;7.46;74.55;102383.41;5271878;28;20028;-73
2022/03/15 08:56:19;;;;;;;13.83;6.93;;;;;;;7.46;73.43;102391.22;5273973;28;20109;-69
2022/03/15 08:58:50;;;;;;;15.33;5.67;;;;;;;7.44;73.63;102367.78;5269969;28;20024;-70
2022/03/15 09:01:22;;;;;;;17.70;6.57;;;;;;;7.45;72.87;102374.72;5271930;28;20028;-69
2022/03/15 09:03:53;;;;;;;13.00;6.47;;;;;;;7.56;72.55;102386.66;5272653;28;20081;-70
2022/03/15 09:06:24;;;;;;;17.73;7.00;;;;;;;7.50;73.41;102375.47;5271993;28;20510;-70
2022/03/15 09:08:56;;;;;;;19.07;6.53;;;;;;;7.61;73.26;102366.56;5270214;28;20777;-71
2022/03/15 09:11:31;;;;;;;15.80;5.50;;;;;;;7.64;72.40;102376.94;5272939;28;20387;-71
2022/03/15 09:14:03;;;;;;;14.90;6.13;;;;;;;7.54;72.85;102352.78;5272894;28;20048;-72
2022/03/15 09:16:34;;;;;;;15.80;6.27;;;;;;;7.75;72.08;102367.09;5287468;28;20078;-72
2022/03/15 09:19:06;;;;;;;18.60;6.20;;;;;;;7.76;72.34;102365.34;5268733;28;20028;-69
2022/03/15 09:21:38;;;;;;;16.07;5.97;;;;;;;7.79;72.40;102369.63;5272530;28;20039;-70
2022/03/15 09:24:09;;;;;;;16.43;6.30;;;;;;;7.84;71.50;102370.38;5273713;28;20017;-69
2022/03/15 09:26:41;;;;;;;11.53;5.83;;;;;;;7.81;72.10;102384.38;5272313;28;20025;-69
2022/03/15 09:29:13;;;;;;;13.57;5.93;;;;;;;7.90;71.74;102375.47;5269254;28;20073;-69
2022/03/15 09:31:44;;;;;;;15.03;5.23;;;;;;;7.91;71.65;102371.94;5270036;28;20020;-70
2022/03/15 09:34:17;;;;;;;13.93;6.33;;;;;;;7.97;71.15;102377.03;5270685;28;20020;-71
2022/03/15 09:36:49;;;;;;;16.93;7.77;;;;;;;7.99;71.23;102375.22;5270171;28;20066;-72
2022/03/15 09:39:22;;;;;;;11.10;5.90;;;;;;;8.03;70.40;102369.97;5267384;28;20068;-72
2022/03/15 09:41:55;;;;;;;12.33;5.50;;;;;;;8.22;70.74;102371.19;5272471;28;20544;-70
2022/03/15 09:44:28;;;;;;;12.33;5.30;;;;;;;8.22;70.21;102371.19;5270138;28;20028;-68
2022/03/15 09:47:03;;;;;;;13.90;5.83;;;;;;;8.31;70.42;102370.09;5270380;28;20028;-72
2022/03/15 09:49:36;;;;;;;10.40;5.43;;;;;;;8.37;70.43;102374.31;5269777;28;20040;-72
2022/03/15 09:52:09;;;;;;;14.87;6.17;;;;;;;8.37;69.49;102374.31;5270150;28;20100;-71
2022/03/15 09:54:41;;;;;;;16.83;6.23;;;;;;;8.42;69.94;102366.38;5272136;28;20024;-70
2022/03/15 09:57:13;;;;;;;14.37;5.77;;;;;;;8.55;69.11;102372.13;5266380;28;20027;-69
2022/03/15 09:59:44;;;;;;;12.00;5.93;;;;;;;8.62;68.96;102373.72;5271439;28;20028;-70
2022/03/15 10:02:16;;;;;;;16.50;6.80;;;;;;;8.63;68.13;102367.59;5271163;28;20025;-69
2022/03/15 10:04:49;;;;;;;14.43;6.20;;;;;;;8.71;68.57;102370.84;5272474;28;20107;-70
2022/03/15 10:07:21;;;;;;;14.90;5.73;;;;;;;8.78;68.21;102368.06;5267639;28;20190;-70
2022/03/15 10:09:52;;;;;;;12.50;5.87;;;;;;;8.82;68.07;102360.09;5270602;28;20024;-69
2022/03/15 10:12:25;;;;;;;12.57;5.17;;;;;;;8.85;68.67;102359.13;5270400;28;20445;-69
2022/03/15 10:14:56;;;;;;;11.73;6.10;;;;;;;8.89;68.91;102350.31;5271901;28;20045;-70
2022/03/15 10:17:28;;;;;;;13.00;7.20;;;;;;;8.82;68.03;102354.88;5266549;28;20044;-70
2022/03/15 10:20:01;;;;;;;15.53;7.20;;;;;;;8.97;68.17;102344.03;5271029;28;20056;-71
2022/03/15 10:22:32;;;;;;;16.03;6.43;;;;;;;9.03;68.10;102347.31;5271958;28;20016;-69
2022/03/15 10:25:04;;;;;;;14.80;6.47;;;;;;;9.05;68.13;102347.28;5271451;28;20028;-70
2022/03/15 10:27:35;;;;;;;12.63;5.73;;;;;;;9.20;68.31;102353.78;5267342;28;20114;-69
2022/03/15 10:30:08;;;;;;;14.00;5.97;;;;;;;9.30;67.39;102350.00;5270435;28;20054;-70
2022/03/15 10:32:39;;;;;;;12.57;5.50;;;;;;;9.28;65.41;102341.38;5269453;28;20762;-70
2022/03/15 10:35:11;;;;;;;23.73;6.10;;;;;;;9.26;65.83;102342.31;5271207;28;20115;-70
2022/03/15 10:37:42;;;;;;;10.33;5.73;;;;;;;9.29;65.70;102322.16;5267909;28;20020;-70
2022/03/15 10:40:15;;;;;;;19.93;6.23;;;;;;;9.43;66.28;102347.88;5270791;28;20379;-69
2022/03/15 10:42:47;;;;;;;18.10;5.73;;;;;;;9.43;65.74;102329.56;5270574;28;20040;-69
2022/03/15 10:45:21;;;;;;;15.07;5.33;;;;;;;9.51;65.78;102326.72;5273438;28;20029;-69
2022/03/15 10:47:55;;;;;;;14.63;5.17;;;;;;;9.59;66.55;102325.63;5267307;28;20450;-69
2022/03/15 10:50:29;;;;;;;16.85;6.07;;;;;;;9.55;65.65;102314.38;5268751;28;20039;-70
2022/03/15 10:53:07;;;;;;;13.82;5.50;;;;;;;9.66;65.99;102325.38;5269532;28;20058;-69
2022/03/15 10:55:39;;;;;;;16.57;5.60;;;;;;;9.64;65.24;102321.09;5271302;28;20020;-69
2022/03/15 10:58:12;;;;;;;13.83;5.67;;;;;;;9.55;65.13;102314.38;5266706;28;20028;-69
2022/03/15 11:00:43;;;;;;;13.97;5.23;;;;;;;9.53;65.09;102308.38;5271192;28;20375;-68
2022/03/15 11:03:23;;;;;;;11.93;5.30;;;;;;;9.63;64.82;102301.09;5268237;28;20086;-68
2022/03/15 11:05:57;;;;;;;17.07;5.03;;;;;;;9.67;65.53;102305.28;5271301;28;20383;-69
2022/03/15 11:08:29;;;;;;;20.73;7.30;;;;;;;9.62;64.46;102292.38;5268343;28;20108;-69
2022/03/15 11:11:06;;;;;;;15.10;5.87;;;;;;;9.72;65.08;102307.78;5270738;28;20031;-71
2022/03/15 11:13:37;;;;;;;12.93;5.40;;;;;;;9.82;64.44;102297.84;5270095;28;20027;-70
2022/03/15 11:16:13;;;;;;;11.70;5.63;;;;;;;9.86;65.30;102289.00;5269285;28;20028;-70
2022/03/15 11:18:45;;;;;;;13.37;5.23;;;;;;;9.93;64.27;102283.50;5266233;28;20017;-70
2022/03/15 11:21:17;;;;;;;12.67;5.10;;;;;;;9.98;63.96;102278.13;5269970;28;20036;-71
2022/03/15 11:23:50;;;;;;;14.17;5.63;;;;;;;9.96;64.16;102284.31;5270110;28;20509;-70
2022/03/15 11:26:22;;;;;;;13.20;4.60;;;;;;;10.08;64.43;102277.78;5269644;28;20037;-71
2022/03/15 11:28:55;;;;;;;9.80;4.63;;;;;;;10.20;64.34;102279.13;5266571;28;20059;-71
2022/03/15 11:31:27;;;;;;;12.17;5.13;;;;;;;10.24;64.10;102270.25;5268479;28;20024;-70
2022/03/15 11:34:00;;;;;;;12.67;5.03;;;;;;;10.27;64.11;102263.16;5269778;28;20029;-73
2022/03/15 11:36:32;;;;;;;13.23;4.90;;;;;;;10.29;63.94;102253.47;5268525;28;20433;-69
2022/03/15 11:39:05;;;;;;;11.67;5.80;;;;;;;10.29;63.70;102242.16;5267978;28;20031;-69
2022/03/15 11:41:36;;;;;;;10.63;5.47;;;;;;;10.50;63.81;102247.53;5270385;28;20059;-69